createdAt,value
2022-07-29T07:09:40.008Z,5.93
2022-07-29T07:12:43.845Z,6.43
2022-07-29T07:15:48.800Z,6.22
2022-07-29T07:18:52.487Z,6.12
2022-07-29T07:21:55.001Z,6.25
2022-07-29T07:24:58.623Z,7.72
2022-07-29T07:28:01.447Z,6.70
2022-07-29T07:31:04.598Z,6.65
2022-07-29T07:34:07.092Z,6.68
2022-07-29T07:37:10.388Z,6.10
2022-07-29T07:40:14.183Z,6.80
2022-07-29T07:43:23.954Z,5.87
2022-07-29T07:46:26.533Z,6.35
2022-07-29T07:49:29.769Z,5.70
2022-07-29T07:52:32.348Z,5.97
2022-07-29T07:56:07.979Z,6.93
2022-07-29T07:59:03.618Z,5.97
2022-07-29T08:02:07.201Z,6.80
2022-07-29T08:05:12.586Z,6.07
2022-07-29T08:08:15.628Z,6.25
2022-07-29T08:11:18.385Z,6.00
2022-07-29T08:14:21.099Z,6.22
2022-07-29T08:17:23.801Z,6.00
2022-07-29T08:20:26.735Z,5.87
2022-07-29T08:23:46.017Z,6.70
2022-07-29T08:29:56.774Z,6.30
2022-07-29T08:32:59.930Z,6.15
2022-07-29T08:36:03.288Z,6.07
2022-07-29T08:39:06.802Z,6.20
2022-07-29T08:42:10.563Z,6.28
2022-07-29T08:45:13.833Z,6.05
2022-07-29T08:48:21.265Z,5.85
2022-07-29T08:51:25.256Z,6.00
2022-07-29T08:54:28.904Z,5.72
2022-07-29T08:57:32.306Z,5.93
2022-07-29T09:00:43.927Z,5.70
2022-07-29T09:03:48.201Z,6.30
2022-07-29T09:06:55.437Z,6.35
2022-07-29T09:09:58.196Z,5.82
2022-07-29T09:13:00.938Z,5.25
2022-07-29T09:16:08.943Z,5.65
2022-07-29T09:19:21.861Z,5.95
2022-07-29T09:22:38.810Z,5.93
2022-07-29T09:25:44.302Z,5.37
2022-07-29T09:28:47.022Z,5.60
2022-07-29T09:31:52.703Z,5.60
2022-07-29T09:35:17.403Z,5.43
2022-07-29T09:38:20.254Z,6.37
2022-07-29T09:41:23.740Z,5.57
2022-07-29T09:44:27.006Z,5.30
2022-07-29T09:47:43.048Z,5.60
2022-07-29T09:50:49.336Z,5.35
2022-07-29T09:53:53.051Z,5.60
2022-07-29T09:56:57.295Z,5.32
2022-07-29T10:00:08.023Z,5.60
2022-07-29T10:03:15.588Z,4.85
2022-07-29T10:06:18.642Z,4.50
2022-07-29T10:09:22.365Z,4.35
2022-07-29T10:12:25.491Z,4.68
2022-07-29T10:15:30.885Z,5.30
2022-07-29T10:18:34.738Z,4.62
2022-07-29T10:21:38.820Z,5.03
2022-07-29T10:24:41.917Z,4.90
2022-07-29T10:27:46.596Z,5.00
2022-07-29T10:30:52.456Z,4.50
2022-07-29T10:34:32.489Z,3.75
2022-07-29T10:37:58.344Z,4.80
2022-07-29T10:41:31.954Z,4.32
2022-07-29T10:44:41.995Z,4.70
2022-07-29T10:47:44.529Z,4.45
2022-07-29T10:51:00.008Z,4.45
2022-07-29T10:54:06.634Z,4.10
2022-07-29T10:57:54.152Z,4.20
2022-07-29T11:00:51.296Z,4.18
2022-07-29T11:03:57.242Z,3.83
2022-07-29T11:06:59.690Z,4.47
2022-07-29T11:10:12.856Z,3.87
2022-07-29T11:13:47.185Z,4.20
2022-07-29T11:17:06.803Z,4.75
2022-07-29T11:20:31.979Z,4.20
2022-07-29T11:23:40.341Z,4.60
2022-07-29T11:26:46.464Z,3.95
2022-07-29T11:29:51.071Z,3.85
2022-07-29T11:32:53.542Z,4.10
2022-07-29T11:36:10.349Z,3.92
2022-07-29T11:42:53.061Z,4.32
2022-07-29T11:45:55.559Z,4.65
2022-07-29T11:48:59.431Z,4.57
2022-07-29T11:52:02.956Z,4.20
2022-07-29T11:55:09.950Z,3.97
2022-07-29T11:58:30.897Z,4.15
2022-07-29T12:01:33.794Z,4.30
2022-07-29T12:04:57.665Z,3.90
2022-07-29T12:07:01.815Z,4.30
2022-07-29T12:08:08.056Z,3.95
2022-07-29T12:11:21.841Z,4.15
2022-07-29T12:14:32.591Z,4.00
2022-07-29T12:17:40.399Z,3.97
2022-07-29T12:20:44.224Z,4.22
2022-07-29T12:24:01.893Z,5.65
2022-07-29T12:27:10.136Z,4.50
2022-07-29T12:30:17.580Z,4.57
2022-07-29T12:33:22.364Z,4.68
2022-07-29T12:36:25.460Z,4.50
2022-07-29T12:39:29.080Z,4.00
2022-07-29T12:42:32.658Z,4.28
2022-07-29T12:45:35.173Z,4.18
2022-07-29T12:48:43.011Z,4.05
2022-07-29T12:51:45.482Z,3.90
2022-07-29T12:54:48.557Z,4.15
2022-07-29T12:57:53.236Z,4.30
2022-07-29T13:01:17.360Z,4.20
2022-07-29T13:04:31.830Z,3.97
2022-07-29T13:07:54.644Z,3.85
2022-07-29T13:10:59.822Z,4.28
2022-07-29T13:14:07.059Z,3.67
2022-07-29T13:17:11.206Z,4.10
2022-07-29T13:20:15.150Z,3.97
2022-07-29T13:23:17.680Z,4.00
2022-07-29T13:26:20.731Z,4.03
2022-07-29T13:29:23.379Z,3.72
2022-07-29T13:32:28.999Z,4.03
2022-07-29T13:35:31.729Z,4.05
2022-07-29T13:38:35.004Z,4.00
2022-07-29T13:41:38.422Z,3.87
2022-07-29T13:44:42.748Z,4.20
2022-07-29T13:47:49.374Z,4.37
2022-07-29T13:50:52.687Z,4.18
2022-07-29T13:53:55.194Z,4.53
2022-07-29T13:56:58.739Z,4.40
2022-07-29T14:00:01.318Z,4.37
2022-07-29T14:03:11.114Z,4.50
2022-07-29T14:06:14.440Z,4.65
2022-07-29T14:09:17.752Z,4.65
2022-07-29T14:12:20.705Z,4.00
2022-07-29T14:15:24.569Z,5.00
2022-07-29T14:18:27.439Z,4.00
2022-07-29T14:21:31.148Z,4.53
2022-07-29T14:24:37.705Z,4.20
2022-07-29T14:27:40.414Z,4.00
2022-07-29T14:30:44.698Z,4.20
2022-07-29T14:33:49.268Z,5.03
2022-07-29T14:36:52.198Z,4.90
2022-07-29T14:39:55.549Z,4.22
2022-07-29T14:42:58.402Z,5.00
2022-07-29T14:46:06.504Z,4.35
2022-07-29T14:49:11.005Z,4.30
2022-07-29T14:52:13.683Z,4.05
2022-07-29T14:55:19.713Z,4.45
2022-07-29T14:58:23.693Z,4.57
2022-07-29T15:01:26.492Z,4.60
2022-07-29T15:04:29.669Z,5.07
2022-07-29T15:07:32.419Z,4.22
2022-07-29T15:10:35.683Z,4.72
2022-07-29T15:13:38.528Z,4.53
2022-07-29T15:16:44.033Z,4.40
2022-07-29T15:19:49.691Z,4.15
2022-07-29T15:22:52.434Z,4.65
2022-07-29T15:25:55.265Z,4.60
2022-07-29T15:28:57.912Z,4.30
2022-07-29T15:32:01.118Z,4.97
2022-07-29T15:35:04.420Z,4.32
2022-07-29T15:38:07.434Z,4.62
2022-07-29T15:41:10.165Z,4.72
2022-07-29T15:44:12.949Z,5.25
2022-07-29T15:47:15.560Z,5.00
2022-07-29T15:50:20.121Z,4.60
2022-07-29T15:53:22.875Z,4.62
2022-07-29T15:56:25.886Z,4.60
2022-07-29T15:59:28.756Z,4.53
2022-07-29T16:02:31.944Z,5.20
2022-07-29T16:05:34.899Z,4.50
2022-07-29T16:08:37.352Z,4.43
2022-07-29T16:11:41.794Z,4.60
2022-07-29T16:14:44.609Z,4.20
2022-07-29T16:17:47.786Z,4.80
2022-07-29T16:20:50.519Z,4.87
2022-07-29T16:23:53.465Z,4.82
2022-07-29T16:26:56.945Z,4.60
2022-07-29T16:30:00.264Z,4.50
2022-07-29T16:33:08.234Z,4.53
2022-07-29T16:36:13.206Z,4.55
2022-07-29T16:39:17.540Z,4.57
2022-07-29T16:42:36.991Z,4.95
2022-07-29T16:45:46.491Z,5.35
2022-07-29T16:48:49.995Z,4.70
2022-07-29T16:51:53.797Z,4.78
2022-07-29T16:54:56.942Z,4.70
2022-07-29T16:58:00.365Z,4.78
2022-07-29T17:01:06.622Z,5.40
2022-07-29T17:04:09.316Z,4.82
2022-07-29T17:07:12.263Z,4.65
2022-07-29T17:10:14.797Z,5.20
2022-07-29T17:13:17.805Z,4.68
2022-07-29T17:16:24.649Z,5.75
2022-07-29T17:19:33.645Z,4.85
2022-07-29T17:22:36.987Z,4.93
2022-07-29T17:25:40.060Z,5.28
2022-07-29T17:28:42.632Z,5.07
2022-07-29T17:31:45.663Z,5.45
2022-07-29T17:34:48.123Z,5.12
2022-07-29T17:37:51.544Z,4.93
2022-07-29T17:40:54.062Z,5.75
2022-07-29T17:43:57.521Z,5.82
2022-07-29T17:47:01.017Z,5.60
2022-07-29T17:50:05.347Z,6.15
2022-07-29T17:53:15.993Z,5.97
2022-07-29T17:56:19.604Z,5.32
2022-07-29T17:59:22.205Z,5.57
2022-07-29T18:02:28.493Z,5.93
2022-07-29T18:05:31.415Z,5.75
2022-07-29T18:08:34.134Z,6.25
2022-07-29T18:11:36.883Z,6.03
2022-07-29T18:14:41.727Z,5.80
2022-07-29T18:17:56.823Z,6.30
2022-07-29T18:21:00.949Z,6.70
2022-07-29T18:24:03.939Z,6.22
2022-07-29T18:27:06.804Z,6.20
2022-07-29T18:30:09.994Z,6.25
2022-07-29T18:33:21.686Z,5.90
2022-07-29T18:45:32.755Z,6.15
2022-07-29T18:48:35.662Z,6.53
2022-07-29T18:51:38.943Z,6.43
2022-07-29T18:54:42.444Z,5.30
2022-07-29T18:57:54.140Z,9.05
2022-07-29T19:00:59.261Z,7.40
2022-07-29T19:04:01.937Z,6.03
2022-07-29T19:07:04.706Z,5.53
2022-07-29T19:10:08.205Z,5.43
2022-07-29T19:13:13.427Z,5.22
2022-07-29T19:16:16.432Z,5.37
2022-07-29T19:19:19.258Z,5.50
2022-07-29T19:22:21.971Z,4.90
2022-07-29T19:25:25.145Z,5.12
2022-07-29T19:28:27.820Z,4.87
2022-07-29T19:31:31.059Z,5.15
2022-07-29T19:34:52.790Z,4.70
2022-07-29T19:37:57.524Z,5.20
2022-07-29T19:41:00.604Z,4.65
2022-07-29T19:44:03.700Z,5.50
2022-07-29T19:47:06.388Z,4.82
2022-07-29T19:50:10.176Z,4.78
2022-07-29T19:53:13.056Z,4.72
2022-07-29T19:56:15.839Z,7.03
2022-07-29T19:59:23.975Z,5.45
2022-07-29T20:02:27.484Z,5.10
2022-07-29T20:05:31.229Z,5.10
2022-07-29T20:08:33.820Z,5.00
2022-07-29T20:11:39.667Z,5.03
2022-07-29T20:14:42.087Z,5.18
2022-07-29T20:17:45.207Z,4.93
2022-07-29T20:20:49.581Z,5.35
2022-07-29T20:23:53.343Z,4.90
2022-07-29T20:26:55.776Z,5.30
2022-07-29T20:29:58.867Z,5.72
2022-07-29T20:33:01.332Z,5.05
2022-07-29T20:36:04.934Z,5.35
2022-07-29T20:39:07.430Z,5.45
2022-07-29T20:42:10.401Z,5.53
2022-07-29T20:48:15.552Z,6.32
2022-07-29T20:57:38.494Z,5.93
2022-07-29T21:00:42.602Z,5.32
2022-07-29T21:03:45.116Z,4.93
2022-07-29T21:06:48.081Z,5.57
2022-07-29T21:12:54.432Z,4.80
2022-07-29T21:16:04.288Z,5.07
2022-07-29T21:19:09.280Z,5.43
2022-07-29T21:28:50.133Z,6.03
2022-07-29T21:31:53.590Z,5.57
2022-07-29T21:37:58.829Z,5.40
2022-07-29T21:44:04.516Z,4.85
2022-07-29T21:50:10.289Z,5.12
2022-07-29T21:56:18.882Z,5.30
2022-07-29T21:59:21.319Z,4.70
2022-07-29T22:02:24.212Z,5.65
2022-07-29T22:05:28.062Z,5.25
2022-07-29T22:08:30.680Z,5.47
2022-07-29T22:11:33.535Z,5.60
2022-07-29T22:14:36.167Z,5.12
2022-07-29T22:17:38.864Z,5.35
2022-07-29T22:20:41.681Z,6.32
2022-07-29T22:23:44.392Z,5.57
2022-07-29T22:29:49.501Z,6.00
2022-07-29T22:32:52.194Z,5.95
2022-07-29T22:35:55.372Z,5.70
2022-07-29T22:38:58.146Z,5.72
2022-07-29T22:42:01.161Z,5.82
2022-07-29T22:45:04.336Z,6.20
2022-07-29T22:48:07.135Z,5.95
2022-07-29T22:51:09.780Z,5.80
2022-07-29T22:54:12.902Z,6.00
2022-07-29T23:00:18.139Z,5.87
2022-07-29T23:03:21.662Z,6.37
2022-07-29T23:06:24.476Z,5.57
2022-07-29T23:09:27.168Z,6.55
2022-07-29T23:12:29.883Z,5.90
2022-07-29T23:18:35.073Z,5.75
2022-07-29T23:21:37.708Z,5.93
2022-07-29T23:24:40.492Z,5.55
2022-07-29T23:27:43.636Z,5.62
2022-07-29T23:30:46.548Z,5.72
2022-07-29T23:33:49.192Z,6.20
2022-07-29T23:36:51.883Z,5.62
2022-07-29T23:42:57.193Z,5.90
2022-07-29T23:46:00.211Z,5.90
2022-07-29T23:49:03.364Z,5.80
2022-07-29T23:52:06.492Z,6.40
2022-07-29T23:55:36.559Z,5.95
2022-07-29T23:58:33.635Z,5.53
